LFBZ/BIQ METAR and TAF weather

Enter ICAO airport designator
Station Type Date Time Source
LFBZ METAR 2019/05/19 21:00 UTC NOAA

LFBZ 192100Z AUTO 30009KT 270V330 9999 BKN017 BKN027 BKN036 13/11 Q1016 NOSIG


Station Type Date Time Source
LFBZ Decoded METAR 2019/05/19 21:00 UTC NOAA

Biarritz, France (LFBZ) 43-28N 001-32W 71M
May 19, 2019 - 05:00 PM EDT / 2019.05.19 2100 UTC
Wind: from the WNW (300 degrees) at 10 MPH (9 KT) (direction variable):0
Visibility: greater than 7 mile(s):0
Sky conditions: mostly cloudy
Temperature: 55 F (13 C)
Dew Point: 51 F (11 C)
Relative Humidity: 87%
Pressure (altimeter): 30.00 in. Hg (1016 hPa)
ob: LFBZ 192100Z AUTO 30009KT 270V330 9999 BKN017 BKN027 BKN036 13/11 Q1016 NOSIG
cycle: 21

Station Type Date Time Source
LFBZ TAF 2019/05/19 18:21 UTC NOAA

TAF LFBZ 191700Z 1918/2018 30012KT 9999 BKN020 PROB30
TEMPO 1918/1920 30015G25KT 4000 SHRA BKN008 BKN015TCU PROB30
TEMPO 2000/2003 4000 SHRA BKN010 BKN015TCU
BECMG 2012/2014 SCT030

Example: see airport list